Time;durP1;ratioP1;P1;durP2;ratioP2;P2;SDS_P1;SDS_P2;PMS_P1;PMS_P2;Temp;Humidity;BMP_temperature;BMP_pressure;BME280_temperature;BME280_humidity;BME280_pressure;Samples;Min_cycle;Max_cycle;Signal;HPM_P1;HPM_P2
2020/12/07 00:00:44;;;;;;;8.13;6.93;;;;;;;4.64;85.69;93659.13;5091239;28;20246;-76
2020/12/07 00:03:11;;;;;;;7.67;6.87;;;;;;;4.68;85.57;93665.44;5094599;28;20215;-77
2020/12/07 00:05:37;;;;;;;7.53;6.60;;;;;;;4.69;85.59;93667.78;5094846;28;20234;-76
2020/12/07 00:08:04;;;;;;;8.30;6.87;;;;;;;4.65;85.75;93666.59;5094209;28;20200;-77
2020/12/07 00:10:30;;;;;;;7.30;6.60;;;;;;;4.70;85.66;93664.28;5094731;28;20204;-78
2020/12/07 00:12:56;;;;;;;6.70;6.10;;;;;;;4.69;85.55;93669.56;5094531;28;20212;-76
2020/12/07 00:15:22;;;;;;;7.17;6.47;;;;;;;4.68;85.55;93662.88;5093660;28;20203;-77
2020/12/07 00:17:48;;;;;;;7.33;6.63;;;;;;;4.66;85.52;93652.88;5093838;28;20274;-77
2020/12/07 00:20:16;;;;;;;7.40;6.70;;;;;;;4.58;86.45;93659.88;5094099;28;20200;-77
2020/12/07 00:22:42;;;;;;;7.33;6.63;;;;;;;4.63;86.06;93667.75;5094090;28;20204;-77
2020/12/07 00:25:09;;;;;;;7.20;6.40;;;;;;;4.65;85.67;93691.28;5091969;28;20615;-77
2020/12/07 00:27:35;;;;;;;7.03;6.43;;;;;;;4.68;85.58;93696.78;5093709;28;20227;-76
2020/12/07 00:30:05;;;;;;;6.97;6.37;;;;;;;4.66;85.93;93693.66;5072972;28;20208;-76
2020/12/07 00:32:32;;;;;;;7.03;6.37;;;;;;;4.71;85.67;93685.44;5073362;28;20200;-76
2020/12/07 00:34:58;;;;;;;7.33;6.63;;;;;;;4.75;85.81;93686.66;5088915;28;20242;-77
2020/12/07 00:37:24;;;;;;;7.20;6.50;;;;;;;4.75;85.62;93694.28;5074202;28;20216;-77
2020/12/07 00:39:51;;;;;;;7.27;6.57;;;;;;;4.81;85.18;93699.41;5092448;28;20245;-76
2020/12/07 00:42:17;;;;;;;7.10;6.40;;;;;;;4.86;85.45;93701.41;5073270;28;20205;-77
2020/12/07 00:44:43;;;;;;;6.90;6.20;;;;;;;4.82;85.09;93718.84;5073263;28;20211;-77
2020/12/07 00:47:10;;;;;;;6.53;5.93;;;;;;;4.81;84.63;93712.16;5074965;28;20220;-77
2020/12/07 00:49:37;;;;;;;6.73;6.10;;;;;;;4.83;84.83;93700.00;5092799;28;20199;-76
2020/12/07 00:52:04;;;;;;;6.50;5.90;;;;;;;4.79;84.62;93706.50;5072991;28;20193;-77
2020/12/07 00:54:30;;;;;;;7.27;6.57;;;;;;;4.74;84.88;93716.44;5072370;28;20756;-76
2020/12/07 00:56:56;;;;;;;6.73;6.03;;;;;;;4.70;85.47;93729.75;5091285;28;20315;-76
2020/12/07 00:59:24;;;;;;;6.43;5.83;;;;;;;4.65;85.65;93727.75;5092989;28;20586;-77
2020/12/07 01:01:51;;;;;;;6.57;5.93;;;;;;;4.73;85.41;93716.63;5075554;28;20234;-76
2020/12/07 01:04:17;;;;;;;7.23;6.53;;;;;;;4.80;85.62;93714.91;5072991;28;20205;-77
2020/12/07 01:06:45;;;;;;;6.20;5.60;;;;;;;4.69;85.56;93707.78;5089523;28;20223;-77
2020/12/07 01:09:11;;;;;;;6.87;6.27;;;;;;;4.67;85.71;93700.31;5075502;28;20276;-77
2020/12/07 01:11:37;;;;;;;6.77;6.13;;;;;;;4.68;86.30;93694.25;5088272;28;20200;-76
2020/12/07 01:14:03;;;;;;;6.87;6.27;;;;;;;4.62;86.38;93681.47;5093273;28;20621;-74
2020/12/07 01:16:29;;;;;;;6.50;5.97;;;;;;;4.66;86.31;93685.22;5077450;28;20597;-73
2020/12/07 01:18:55;;;;;;;6.93;6.13;;;;;;;4.67;86.11;93712.28;5087271;28;20714;-73
2020/12/07 01:21:21;;;;;;;5.97;5.47;;;;;;;4.66;86.53;93718.34;5079493;28;20197;-75
2020/12/07 01:23:47;;;;;;;7.00;6.40;;;;;;;4.64;86.10;93736.38;5071648;28;20224;-75
2020/12/07 01:26:13;;;;;;;6.00;5.50;;;;;;;4.61;86.81;93738.53;5083629;28;20243;-75
2020/12/07 01:28:40;;;;;;;6.00;5.40;;;;;;;4.62;86.47;93745.94;5079845;28;20196;-75
2020/12/07 01:31:06;;;;;;;5.63;5.13;;;;;;;4.68;85.93;93745.22;5082397;28;20199;-74
2020/12/07 01:33:33;;;;;;;5.77;5.27;;;;;;;4.67;86.26;93747.94;5092265;28;20650;-75
2020/12/07 01:35:59;;;;;;;5.87;5.30;;;;;;;4.63;85.94;93769.69;5081663;28;20703;-75
2020/12/07 01:38:25;;;;;;;5.40;5.00;;;;;;;4.66;86.16;93769.31;5081293;28;20216;-75
2020/12/07 01:40:51;;;;;;;5.10;4.70;;;;;;;4.70;86.00;93756.03;5078781;28;20203;-77
2020/12/07 01:43:17;;;;;;;6.30;4.90;;;;;;;4.62;86.35;93758.69;5073043;28;20208;-75
2020/12/07 01:45:43;;;;;;;5.70;5.20;;;;;;;4.45;87.13;93754.84;5083895;28;20192;-78
2020/12/07 01:48:09;;;;;;;5.70;5.07;;;;;;;4.44;87.52;93745.63;5091532;28;20192;-77
2020/12/07 01:50:37;;;;;;;5.80;5.30;;;;;;;4.50;87.21;93743.13;5092693;28;20207;-77
2020/12/07 01:53:03;;;;;;;5.33;4.93;;;;;;;4.53;87.65;93741.19;5092480;28;20195;-78
2020/12/07 01:55:30;;;;;;;5.27;4.80;;;;;;;4.60;87.34;93735.19;5083068;28;20197;-77
2020/12/07 01:57:55;;;;;;;5.50;5.00;;;;;;;4.62;86.82;93729.91;5077292;28;20253;-77
2020/12/07 02:00:22;;;;;;;5.60;5.10;;;;;;;4.66;86.42;93754.03;5092533;28;20200;-77
2020/12/07 02:02:49;;;;;;;5.13;4.73;;;;;;;4.56;86.82;93758.66;5090176;28;20219;-77
2020/12/07 02:05:16;;;;;;;4.70;4.40;;;;;;;4.54;86.76;93743.56;5078928;28;20341;-77
2020/12/07 02:07:42;;;;;;;5.30;4.90;;;;;;;4.53;87.01;93752.16;5093363;28;20273;-76
2020/12/07 02:10:09;;;;;;;5.10;4.70;;;;;;;4.45;87.74;93765.81;5075997;28;20247;-76
2020/12/07 02:12:34;;;;;;;4.97;4.57;;;;;;;4.51;87.30;93777.84;5077850;28;20228;-76
2020/12/07 02:15:00;;;;;;;4.77;4.37;;;;;;;4.59;86.81;93778.69;5080953;28;20717;-76
2020/12/07 02:17:26;;;;;;;4.77;4.37;;;;;;;4.54;87.16;93786.09;5095973;28;20232;-75
2020/12/07 02:19:53;;;;;;;5.17;4.77;;;;;;;4.58;86.51;93800.03;5076067;28;20228;-79
2020/12/07 02:22:19;;;;;;;4.77;4.37;;;;;;;4.46;87.05;93807.38;5076217;28;20208;-77
2020/12/07 02:24:45;;;;;;;5.20;4.70;;;;;;;4.40;87.60;93815.75;5092163;28;20208;-77
2020/12/07 02:27:11;;;;;;;4.20;3.90;;;;;;;4.36;88.37;93827.28;5076276;28;20695;-80
2020/12/07 02:29:37;;;;;;;4.33;4.03;;;;;;;4.37;87.94;93836.50;5093885;28;20568;-79
2020/12/07 02:32:11;;;;;;;4.67;4.27;;;;;;;4.26;88.77;93835.22;5095965;28;20204;-79
2020/12/07 02:34:37;;;;;;;4.70;4.30;;;;;;;4.25;88.96;93843.03;5078905;28;20224;-79
2020/12/07 02:37:04;;;;;;;4.53;4.23;;;;;;;4.16;89.44;93838.06;5104377;22;20214;-79
2020/12/07 02:39:30;;;;;;;5.00;4.60;;;;;;;4.25;89.23;93835.38;5057027;28;20221;-78
2020/12/07 02:41:56;;;;;;;4.60;4.20;;;;;;;4.19;89.29;93854.75;5072465;28;20197;-80
2020/12/07 02:44:22;;;;;;;4.90;4.50;;;;;;;4.10;89.54;93840.53;5062264;28;20573;-79
2020/12/07 02:46:48;;;;;;;5.10;4.60;;;;;;;4.22;89.52;93834.00;5075087;28;20197;-76
2020/12/07 02:49:14;;;;;;;4.40;4.10;;;;;;;4.31;88.81;93827.03;5090591;28;20245;-79
2020/12/07 02:51:40;;;;;;;4.73;4.33;;;;;;;4.44;88.11;93835.56;5095390;28;20204;-79
2020/12/07 02:54:07;;;;;;;4.43;4.13;;;;;;;4.48;88.17;93851.28;5085671;28;20686;-80
2020/12/07 02:56:32;;;;;;;4.00;3.70;;;;;;;4.44;87.45;93857.72;5090302;28;20605;-79
2020/12/07 02:58:58;;;;;;;4.30;4.00;;;;;;;4.41;87.16;93878.50;5086488;28;20224;-76
2020/12/07 03:01:24;;;;;;;4.10;3.80;;;;;;;4.24;87.37;93892.38;5076152;28;20193;-76
2020/12/07 03:03:50;;;;;;;4.40;4.03;;;;;;;4.21;88.17;93883.38;5074423;28;20572;-76
2020/12/07 03:06:16;;;;;;;4.20;3.90;;;;;;;4.08;87.62;93873.81;5088173;28;20200;-76
2020/12/07 03:08:42;;;;;;;3.90;3.60;;;;;;;4.17;87.05;93856.69;5093746;28;20211;-76
2020/12/07 03:11:09;;;;;;;4.10;3.70;;;;;;;4.28;86.53;93857.94;5094648;28;20695;-76
2020/12/07 03:13:34;;;;;;;4.03;3.73;;;;;;;4.30;86.21;93848.38;5090596;28;20201;-79
2020/12/07 03:16:00;;;;;;;4.13;3.83;;;;;;;4.29;85.85;93869.72;5085697;28;20222;-76
2020/12/07 03:18:28;;;;;;;4.50;4.10;;;;;;;4.32;86.17;93859.19;5090551;28;20702;-76
2020/12/07 03:20:54;;;;;;;3.90;3.60;;;;;;;4.36;85.52;93860.41;5074219;28;20388;-76
2020/12/07 03:23:20;;;;;;;4.27;3.93;;;;;;;4.36;85.81;93862.94;5075878;28;20247;-76
2020/12/07 03:25:46;;;;;;;4.30;4.00;;;;;;;4.42;85.15;93857.94;5085332;28;20208;-76
2020/12/07 03:28:12;;;;;;;4.07;3.70;;;;;;;4.43;85.49;93861.22;5074493;28;20217;-79
2020/12/07 03:30:38;;;;;;;4.30;4.00;;;;;;;4.47;85.59;93860.69;5054290;28;20197;-76
2020/12/07 03:33:04;;;;;;;4.07;3.77;;;;;;;4.51;84.71;93868.78;5053989;28;20252;-76
2020/12/07 03:35:30;;;;;;;4.57;4.20;;;;;;;4.51;84.87;93879.75;5084463;28;20201;-76
2020/12/07 03:37:56;;;;;;;4.13;3.83;;;;;;;4.50;84.77;93885.81;5074043;28;20232;-76
2020/12/07 03:40:22;;;;;;;4.30;4.00;;;;;;;4.51;84.76;93895.03;5091441;28;20196;-76
2020/12/07 03:42:48;;;;;;;4.10;3.80;;;;;;;4.50;84.73;93896.00;5094534;28;20196;-79
2020/12/07 03:45:15;;;;;;;4.17;3.87;;;;;;;4.38;85.59;93906.88;5082061;28;20246;-79
2020/12/07 03:47:41;;;;;;;5.17;4.30;;;;;;;4.36;85.76;93913.91;5085210;28;20220;-76
2020/12/07 03:50:07;;;;;;;4.17;3.87;;;;;;;4.34;86.02;93906.44;5088909;28;20600;-77
2020/12/07 03:52:32;;;;;;;4.57;4.20;;;;;;;4.39;85.48;93913.53;5086703;28;20663;-76
2020/12/07 03:54:58;;;;;;;4.47;4.00;;;;;;;4.38;85.57;93911.97;5072972;28;20692;-76
2020/12/07 03:57:24;;;;;;;4.33;4.00;;;;;;;4.32;85.30;93912.66;5073628;28;20220;-76
2020/12/07 03:59:50;;;;;;;4.43;4.00;;;;;;;4.37;85.22;93918.81;5085190;28;20276;-76
2020/12/07 04:02:17;;;;;;;4.40;4.10;;;;;;;4.44;85.54;93927.31;5093724;28;20207;-76
2020/12/07 04:04:47;;;;;;;4.57;4.17;;;;;;;4.48;85.18;93925.97;5086117;28;20208;-79
2020/12/07 04:07:13;;;;;;;4.53;4.13;;;;;;;4.50;84.60;93921.50;5075390;28;20300;-76
2020/12/07 04:09:39;;;;;;;4.30;4.00;;;;;;;4.54;84.99;93924.47;5082963;28;20226;-76
2020/12/07 04:12:05;;;;;;;3.90;3.60;;;;;;;4.51;84.46;93935.03;5091829;28;20694;-76
2020/12/07 04:14:31;;;;;;;3.83;3.43;;;;;;;4.49;84.05;93924.22;5074252;28;20202;-76
2020/12/07 04:16:57;;;;;;;3.90;3.60;;;;;;;4.46;84.12;93932.22;5093422;28;20224;-76
2020/12/07 04:19:24;;;;;;;3.80;3.50;;;;;;;4.48;83.87;93907.34;5086110;28;20238;-76
2020/12/07 04:21:49;;;;;;;3.97;3.60;;;;;;;4.37;84.45;93900.97;5073582;28;20209;-76
2020/12/07 04:24:15;;;;;;;3.60;3.30;;;;;;;4.41;84.59;93889.47;5074429;28;20668;-76
2020/12/07 04:26:41;;;;;;;3.97;3.57;;;;;;;4.42;84.05;93893.59;5073140;28;20211;-79
2020/12/07 04:29:07;;;;;;;3.47;3.17;;;;;;;4.42;83.88;93900.44;5077163;28;20301;-76
2020/12/07 04:31:33;;;;;;;4.00;3.70;;;;;;;4.39;83.65;93909.25;5092506;28;20207;-79
2020/12/07 04:33:59;;;;;;;3.37;3.10;;;;;;;4.36;83.84;93914.69;5090329;28;20399;-78
2020/12/07 04:36:26;;;;;;;3.73;3.43;;;;;;;4.36;83.61;93913.91;5073290;28;20213;-75
2020/12/07 04:38:52;;;;;;;3.33;3.13;;;;;;;4.40;83.98;93920.22;5073771;28;20638;-76
2020/12/07 04:41:18;;;;;;;3.00;2.80;;;;;;;4.40;83.91;93920.22;5093180;28;20196;-77
2020/12/07 04:43:44;;;;;;;3.83;2.93;;;;;;;4.40;83.74;93922.78;5092989;28;20200;-75
2020/12/07 04:46:10;;;;;;;3.10;2.90;;;;;;;4.36;83.60;93929.19;5075125;28;20571;-76
2020/12/07 04:48:36;;;;;;;3.67;2.57;;;;;;;4.38;83.58;93932.34;5073185;28;20666;-77
2020/12/07 04:51:04;;;;;;;3.10;2.90;;;;;;;4.39;83.68;93927.06;5091246;28;20208;-77
2020/12/07 04:53:32;;;;;;;3.13;2.93;;;;;;;4.37;83.92;93921.38;5078760;28;20204;-75
2020/12/07 04:56:01;;;;;;;2.67;2.47;;;;;;;4.30;83.87;93927.34;5082094;28;20197;-77
2020/12/07 04:58:27;;;;;;;2.70;2.50;;;;;;;4.30;83.65;93937.53;5079510;28;20227;-76
2020/12/07 05:00:53;;;;;;;2.30;2.20;;;;;;;4.29;84.02;93943.59;5090858;28;20233;-77
2020/12/07 05:03:19;;;;;;;2.53;2.33;;;;;;;4.29;84.27;93946.13;5085156;28;20623;-76
2020/12/07 05:05:45;;;;;;;2.50;2.30;;;;;;;4.27;83.71;93953.16;5072442;28;20287;-76
2020/12/07 05:08:12;;;;;;;2.17;2.07;;;;;;;4.33;83.69;93966.00;5072944;28;20270;-76
2020/12/07 05:10:41;;;;;;;2.40;2.27;;;;;;;4.38;82.99;93965.47;5091839;28;20743;-76
2020/12/07 05:13:16;;;;;;;2.60;2.40;;;;;;;4.43;83.19;93970.78;5074388;28;20193;-76
2020/12/07 05:15:43;;;;;;;2.53;2.33;;;;;;;4.42;83.01;93975.13;5080901;28;20227;-76
2020/12/07 05:18:09;;;;;;;3.27;2.60;;;;;;;4.44;82.72;93982.56;5092841;28;20216;-76
2020/12/07 05:20:35;;;;;;;2.67;2.47;;;;;;;4.43;82.58;93988.63;5085550;28;20273;-76
2020/12/07 05:23:01;;;;;;;2.57;2.37;;;;;;;4.45;82.54;93986.69;5088830;28;20200;-75
2020/12/07 05:25:28;;;;;;;3.13;2.50;;;;;;;4.47;82.48;93977.13;5086599;28;20200;-76
2020/12/07 05:27:58;;;;;;;4.47;2.90;;;;;;;4.38;83.17;93983.28;5072164;28;20885;-77
2020/12/07 05:30:27;;;;;;;2.97;2.77;;;;;;;4.35;83.11;93981.09;5076737;28;20203;-79
2020/12/07 05:32:53;;;;;;;3.17;2.97;;;;;;;4.32;83.59;93991.63;5077231;28;20196;-79
2020/12/07 05:35:19;;;;;;;3.87;2.63;;;;;;;4.29;83.52;93989.44;5075150;28;20197;-77
2020/12/07 05:37:45;;;;;;;4.13;2.63;;;;;;;4.32;83.51;93994.97;5072051;28;20237;-77
2020/12/07 05:40:12;;;;;;;2.87;2.53;;;;;;;4.28;82.90;93992.94;5071662;28;20217;-77
2020/12/07 05:42:39;;;;;;;3.60;2.43;;;;;;;4.19;83.23;94004.22;5072532;28;20207;-76
2020/12/07 05:45:07;;;;;;;2.57;2.37;;;;;;;4.21;82.94;93999.75;5081058;28;20211;-77
2020/12/07 05:47:37;;;;;;;3.33;3.03;;;;;;;4.30;82.89;94001.22;5077537;28;20220;-76
2020/12/07 05:50:04;;;;;;;2.97;2.67;;;;;;;4.35;83.02;94002.28;5072261;28;20264;-79
2020/12/07 05:52:45;;;;;;;2.80;2.60;;;;;;;4.37;82.64;93995.25;5072048;28;20200;-78
2020/12/07 05:55:11;;;;;;;2.63;2.43;;;;;;;4.41;82.37;93998.22;5072077;28;20207;-76
2020/12/07 05:57:45;;;;;;;3.00;2.60;;;;;;;4.44;82.60;93998.63;5072402;28;20216;-78
2020/12/07 06:00:18;;;;;;;2.57;2.37;;;;;;;4.40;82.56;93992.34;5072977;28;20691;-77
2020/12/07 06:02:48;;;;;;;22.13;17.20;;;;;;;4.43;82.42;93993.72;5072536;28;20295;-79
2020/12/07 06:05:15;;;;;;;4.40;4.00;;;;;;;4.36;82.70;93993.66;5071708;28;20196;-76
2020/12/07 06:07:44;;;;;;;3.53;3.23;;;;;;;4.37;82.68;93999.53;5072904;28;20715;-78
2020/12/07 06:10:13;;;;;;;2.80;2.60;;;;;;;4.37;82.89;93994.44;5072504;28;20215;-77
2020/12/07 06:12:44;;;;;;;3.43;2.93;;;;;;;4.40;82.81;94005.09;5070649;28;20656;-77
2020/12/07 06:15:10;;;;;;;3.27;2.70;;;;;;;4.37;82.71;94007.97;5068431;28;20208;-77
2020/12/07 06:17:36;;;;;;;2.90;2.70;;;;;;;4.43;82.93;94001.38;5071908;28;20225;-77
2020/12/07 06:20:03;;;;;;;3.43;3.13;;;;;;;4.44;82.29;94011.38;5071875;28;20232;-80
2020/12/07 06:22:30;;;;;;;3.00;2.80;;;;;;;4.48;82.48;94004.19;5071842;28;20204;-77
2020/12/07 06:24:59;;;;;;;3.13;2.60;;;;;;;4.49;82.21;94003.22;5072632;28;20201;-77
2020/12/07 06:27:26;;;;;;;2.97;2.60;;;;;;;4.46;83.03;93999.25;5072340;28;20232;-76
2020/12/07 06:30:00;;;;;;;3.33;2.70;;;;;;;4.50;82.38;94010.69;5072261;28;20209;-77
2020/12/07 06:32:46;;;;;;;2.70;2.50;;;;;;;4.51;82.26;94021.66;5071130;28;20209;-76
2020/12/07 06:35:12;;;;;;;3.00;2.80;;;;;;;4.51;82.73;94027.56;5063266;28;20209;-77
2020/12/07 06:37:43;;;;;;;5.23;4.73;;;;;;;4.53;83.02;94031.69;5066155;28;20605;-77
2020/12/07 06:40:09;;;;;;;8.00;7.20;;;;;;;4.52;82.62;94033.44;5072992;28;20236;-77
2020/12/07 06:42:39;;;;;;;4.93;4.43;;;;;;;4.53;82.43;94037.56;5072322;28;20212;-76
2020/12/07 06:45:08;;;;;;;3.67;3.33;;;;;;;4.57;82.15;94038.00;5072780;28;20212;-78
2020/12/07 06:47:34;;;;;;;3.07;2.63;;;;;;;4.59;81.95;94046.28;5071945;28;20314;-79
2020/12/07 06:50:11;;;;;;;2.83;2.63;;;;;;;4.60;81.91;94055.50;5052687;28;20636;-78
2020/12/07 06:52:41;;;;;;;2.80;2.60;;;;;;;4.55;82.03;94056.03;5052608;28;20262;-77
2020/12/07 06:55:09;;;;;;;3.83;2.50;;;;;;;4.55;82.12;94060.31;5055760;28;20205;-77
2020/12/07 06:57:39;;;;;;;2.87;2.67;;;;;;;4.53;82.65;94055.41;5055942;28;20241;-77
2020/12/07 07:00:08;;;;;;;3.00;2.70;;;;;;;4.57;82.41;94058.41;5057342;28;20266;-77
2020/12/07 07:02:34;;;;;;;2.83;2.63;;;;;;;4.61;82.21;94064.72;5056400;28;20197;-77
2020/12/07 07:05:01;;;;;;;2.93;2.67;;;;;;;4.63;81.53;94075.50;5055460;28;20675;-79
2020/12/07 07:07:29;;;;;;;3.27;2.97;;;;;;;4.63;81.80;94083.94;5055860;28;20631;-80
2020/12/07 07:09:56;;;;;;;3.60;3.30;;;;;;;4.61;81.63;94092.75;5055959;28;20197;-77
2020/12/07 07:12:22;;;;;;;4.30;3.00;;;;;;;4.51;81.93;94091.25;5056723;28;20209;-80
2020/12/07 07:14:52;;;;;;;3.50;3.07;;;;;;;4.47;82.17;94092.56;5056374;28;20212;-80
2020/12/07 07:17:19;;;;;;;4.60;2.63;;;;;;;4.45;81.98;94093.72;5055626;28;20279;-76
2020/12/07 07:19:45;;;;;;;3.57;3.27;;;;;;;4.46;82.22;94088.44;5056000;28;20720;-78
2020/12/07 07:22:12;;;;;;;3.10;2.80;;;;;;;4.49;82.13;94088.09;5056504;28;20555;-80
2020/12/07 07:24:47;;;;;;;3.20;2.63;;;;;;;4.52;81.83;94092.03;5055798;28;20201;-79
2020/12/07 07:29:57;;;;;;;4.40;2.50;;;;;;;4.46;81.46;94085.09;5056167;28;20196;-77
2020/12/07 07:32:23;;;;;;;2.80;2.47;;;;;;;4.40;81.78;94094.25;5055517;28;20692;-77
2020/12/07 07:34:49;;;;;;;2.73;2.53;;;;;;;4.44;81.57;94087.81;5055536;28;20201;-81
2020/12/07 07:37:16;;;;;;;2.80;2.60;;;;;;;4.48;81.83;94099.25;5055127;28;20233;-76
2020/12/07 07:39:43;;;;;;;3.77;3.07;;;;;;;4.40;82.23;94096.81;5071060;28;20695;-77
2020/12/07 07:42:12;;;;;;;4.90;3.10;;;;;;;4.34;82.29;94097.50;5075686;28;20208;-78
2020/12/07 07:44:39;;;;;;;5.93;2.80;;;;;;;4.38;82.77;94100.50;5075120;28;20201;-77
2020/12/07 07:47:10;;;;;;;3.40;3.10;;;;;;;4.43;82.77;94103.28;5075282;28;20282;-79
2020/12/07 07:49:53;;;;;;;5.93;3.10;;;;;;;4.51;82.69;94100.66;5075433;28;20683;-80
2020/12/07 08:15:36;;;;;;;3.90;3.47;;;;;;;5.06;80.47;94112.13;5075348;28;20654;-78
2020/12/07 08:18:02;;;;;;;3.53;3.23;;;;;;;5.26;80.32;94107.25;5074864;28;20300;-78
2020/12/07 08:20:31;;;;;;;4.13;3.73;;;;;;;5.45;79.85;94107.44;5074780;28;20224;-78
2020/12/07 08:22:59;;;;;;;4.07;3.50;;;;;;;5.66;78.80;94106.66;5074872;28;20204;-79
2020/12/07 08:25:44;;;;;;;3.73;3.43;;;;;;;5.78;76.51;94100.09;5074310;28;20201;-81
2020/12/07 08:28:21;;;;;;;3.63;3.33;;;;;;;5.84;76.25;94112.13;5074474;28;20220;-80
2020/12/07 08:31:00;;;;;;;3.90;3.50;;;;;;;5.87;76.10;94096.44;5074962;28;20246;-78
2020/12/07 08:33:26;;;;;;;3.50;3.20;;;;;;;6.00;76.20;94100.09;5074024;28;20205;-79
2020/12/07 08:35:53;;;;;;;4.27;3.47;;;;;;;5.94;74.99;94114.41;5074248;28;20200;-79
2020/12/07 08:38:27;;;;;;;3.70;3.40;;;;;;;5.90;75.10;94123.41;5074176;28;20233;-80
2020/12/07 08:40:53;;;;;;;3.40;3.10;;;;;;;5.84;75.40;94141.97;5100637;22;20228;-75
2020/12/07 08:43:20;;;;;;;4.90;3.60;;;;;;;5.87;75.72;94134.75;5094205;28;20200;-79
2020/12/07 08:45:47;;;;;;;3.03;2.83;;;;;;;6.04;75.46;94137.88;5093312;28;20208;-80
2020/12/07 08:48:16;;;;;;;3.50;3.20;;;;;;;6.13;76.16;94146.19;5094369;28;20196;-80
2020/12/07 08:50:42;;;;;;;3.67;3.20;;;;;;;6.31;74.52;94143.19;5094000;28;20212;-77
2020/12/07 08:53:07;;;;;;;6.93;5.20;;;;;;;6.39;74.20;94145.59;5095112;28;20204;-80
2020/12/07 08:55:33;;;;;;;6.97;6.27;;;;;;;6.50;73.51;94145.88;5094136;28;20253;-77
2020/12/07 08:57:59;;;;;;;3.50;3.20;;;;;;;6.65;73.07;94156.00;5093880;28;20200;-80
2020/12/07 09:00:26;;;;;;;3.47;3.17;;;;;;;6.70;71.62;94153.69;5094059;28;20227;-77
2020/12/07 09:02:52;;;;;;;3.17;2.87;;;;;;;6.83;72.53;94152.97;5093974;28;20210;-77
2020/12/07 09:05:18;;;;;;;2.90;2.70;;;;;;;6.93;73.23;94159.31;5093363;28;20336;-77
2020/12/07 09:07:44;;;;;;;5.70;2.90;;;;;;;7.09;71.84;94158.22;5093695;28;20256;-77
2020/12/07 09:10:10;;;;;;;2.70;2.50;;;;;;;7.27;71.09;94152.59;5093517;28;20203;-80
2020/12/07 09:12:36;;;;;;;3.33;2.40;;;;;;;7.35;70.86;94144.72;5093957;28;20223;-80
2020/12/07 09:15:03;;;;;;;2.23;2.03;;;;;;;7.47;69.20;94148.31;5093084;28;20231;-75
2020/12/07 09:17:30;;;;;;;2.40;2.20;;;;;;;7.61;68.74;94149.94;5091910;28;20200;-75
2020/12/07 09:19:56;;;;;;;2.30;2.10;;;;;;;7.73;66.08;94149.34;5092337;28;20227;-78
2020/12/07 09:22:22;;;;;;;2.10;2.00;;;;;;;7.65;66.35;94147.00;5092309;28;20247;-78
2020/12/07 09:24:48;;;;;;;2.00;1.90;;;;;;;7.66;66.11;94149.34;5092388;28;20253;-77
2020/12/07 09:27:14;;;;;;;2.07;1.87;;;;;;;7.94;67.76;94149.97;5093424;28;20207;-77
2020/12/07 09:29:40;;;;;;;2.10;1.90;;;;;;;8.08;66.07;94166.16;5093299;28;20608;-78
2020/12/07 09:32:06;;;;;;;1.47;1.37;;;;;;;8.16;64.86;94160.84;5093614;28;20224;-80
2020/12/07 09:34:33;;;;;;;4.23;3.83;;;;;;;8.09;64.60;94160.03;5093568;28;20197;-79
2020/12/07 09:36:59;;;;;;;3.20;2.90;;;;;;;8.03;64.21;94167.75;5093462;28;20200;-80
2020/12/07 09:39:25;;;;;;;2.03;1.93;;;;;;;8.02;64.23;94171.28;5093046;28;20601;-80
2020/12/07 09:41:51;;;;;;;1.73;1.63;;;;;;;7.84;65.23;94166.75;5093080;28;20236;-79
2020/12/07 09:44:17;;;;;;;1.70;1.60;;;;;;;7.71;65.46;94157.22;5092707;28;20200;-80
2020/12/07 09:46:43;;;;;;;2.10;1.77;;;;;;;7.61;66.49;94156.81;5093642;28;20253;-77
2020/12/07 09:49:09;;;;;;;1.87;1.77;;;;;;;7.58;66.63;94152.09;5093120;28;20253;-77
2020/12/07 09:51:36;;;;;;;1.77;1.67;;;;;;;7.72;65.41;94151.13;5093392;28;20230;-78
2020/12/07 09:54:02;;;;;;;2.00;1.30;;;;;;;7.76;64.34;94154.09;5092155;28;20207;-76
2020/12/07 09:56:29;;;;;;;1.70;1.60;;;;;;;7.77;64.46;94153.91;5091968;28;20199;-75
2020/12/07 09:58:56;;;;;;;1.70;1.40;;;;;;;7.86;63.63;94155.31;5092058;28;20220;-77
2020/12/07 10:01:22;;;;;;;1.70;1.60;;;;;;;7.83;63.90;94145.44;5092247;28;20311;-76
2020/12/07 10:03:48;;;;;;;1.60;1.50;;;;;;;7.83;64.04;94155.69;5092595;28;20257;-77
2020/12/07 10:06:14;;;;;;;1.70;1.43;;;;;;;7.74;66.15;94154.28;5093097;28;20242;-78
2020/12/07 10:08:40;;;;;;;1.40;1.30;;;;;;;7.76;64.03;94160.00;5093802;28;20204;-78
2020/12/07 10:11:07;;;;;;;1.27;1.20;;;;;;;7.71;64.73;94157.22;5093423;28;20231;-77
2020/12/07 10:13:33;;;;;;;1.13;1.10;;;;;;;7.61;64.60;94144.03;5093170;28;20239;-78
2020/12/07 10:15:59;;;;;;;1.27;1.17;;;;;;;7.50;63.71;94147.16;5091700;28;20211;-78
2020/12/07 10:18:25;;;;;;;1.50;1.20;;;;;;;7.40;65.13;94147.50;5091525;28;20199;-76
2020/12/07 10:20:50;;;;;;;1.40;1.30;;;;;;;7.28;64.76;94152.41;5091643;28;20228;-78
2020/12/07 10:23:17;;;;;;;1.13;1.07;;;;;;;7.22;65.14;94157.47;5092992;28;20287;-79
2020/12/07 10:25:49;;;;;;;1.63;1.30;;;;;;;7.17;65.24;94154.69;5092600;28;20677;-80
2020/12/07 10:28:14;;;;;;;1.30;1.20;;;;;;;7.17;65.08;94154.69;5095438;28;20215;-80
2020/12/07 10:30:40;;;;;;;1.00;1.00;;;;;;;7.14;65.23;94155.84;5097161;28;20216;-80
2020/12/07 10:33:06;;;;;;;1.43;1.33;;;;;;;7.10;65.44;94144.44;5097001;28;20253;-78
2020/12/07 10:35:32;;;;;;;1.30;1.20;;;;;;;7.04;65.49;94142.63;5096974;28;20200;-77
2020/12/07 10:37:58;;;;;;;1.30;1.20;;;;;;;6.99;65.86;94141.63;5096917;28;20582;-80
2020/12/07 10:40:24;;;;;;;2.67;1.43;;;;;;;6.89;65.96;94140.22;5096461;28;20265;-77
2020/12/07 10:42:51;;;;;;;1.33;1.20;;;;;;;6.93;65.96;94130.38;5096720;28;20249;-77
2020/12/07 10:45:17;;;;;;;1.80;1.10;;;;;;;6.96;65.70;94130.00;5096093;28;20200;-77
2020/12/07 10:47:43;;;;;;;1.30;1.10;;;;;;;6.96;65.37;94124.09;5096579;28;20204;-77
2020/12/07 10:50:09;;;;;;;1.10;1.10;;;;;;;6.91;65.69;94132.34;5097007;28;20204;-80
2020/12/07 10:52:35;;;;;;;1.67;1.33;;;;;;;6.90;65.94;94131.56;5096339;28;20220;-79
2020/12/07 10:55:01;;;;;;;2.00;1.20;;;;;;;6.90;65.58;94128.22;5096261;28;20207;-78
2020/12/07 10:57:27;;;;;;;1.40;1.30;;;;;;;6.85;65.33;94118.53;5096367;28;20253;-77
2020/12/07 10:59:54;;;;;;;2.77;1.20;;;;;;;6.81;66.22;94119.91;5096861;28;20219;-78
2020/12/07 11:02:20;;;;;;;1.90;1.40;;;;;;;6.75;65.32;94122.41;5096435;28;20227;-77
2020/12/07 11:04:46;;;;;;;4.20;1.40;;;;;;;6.68;66.45;94122.38;5096713;28;20208;-78
2020/12/07 11:07:14;;;;;;;2.23;1.60;;;;;;;6.91;79.18;94130.59;5095289;28;20685;-75
2020/12/07 11:09:40;;;;;;;2.63;1.63;;;;;;;7.35;73.33;94116.56;5094991;28;20200;-78
2020/12/07 11:12:11;;;;;;;1.30;1.20;;;;;;;7.28;66.02;94120.88;5096312;28;20295;-77
2020/12/07 11:14:38;;;;;;;1.20;1.10;;;;;;;7.21;64.96;94128.53;5095921;28;20200;-79
2020/12/07 11:17:05;;;;;;;1.30;1.20;;;;;;;7.09;64.99;94132.63;5095931;28;20206;-77
2020/12/07 11:19:31;;;;;;;1.37;1.27;;;;;;;7.10;65.79;94130.88;5096299;28;20227;-77
2020/12/07 11:21:57;;;;;;;1.10;1.00;;;;;;;7.02;63.93;94136.91;5096111;28;20299;-77
2020/12/07 11:24:23;;;;;;;1.10;1.00;;;;;;;7.00;64.64;94141.44;5095936;28;20241;-78
2020/12/07 11:26:49;;;;;;;1.20;1.10;;;;;;;6.95;65.13;94146.31;5096127;28;20200;-77
2020/12/07 11:29:15;;;;;;;1.20;1.10;;;;;;;7.01;65.19;94143.00;5095749;28;20204;-77
2020/12/07 11:31:45;;;;;;;1.13;1.03;;;;;;;6.96;64.51;94150.47;5095903;28;20713;-77
2020/12/07 11:34:12;;;;;;;0.90;0.90;;;;;;;7.04;65.42;94152.88;5096558;28;20196;-77
2020/12/07 11:36:38;;;;;;;1.10;1.00;;;;;;;7.12;64.73;94157.06;5095658;28;20257;-79
2020/12/07 11:39:20;;;;;;;1.23;1.10;;;;;;;7.12;64.50;94149.38;5095441;28;20228;-79
2020/12/07 11:41:56;;;;;;;1.00;1.00;;;;;;;7.13;63.83;94145.81;5095301;28;20228;-77
2020/12/07 11:44:22;;;;;;;37.70;28.57;;;;;;;7.04;66.23;94147.75;5095266;28;20687;-77
2020/12/07 11:46:54;;;;;;;13.33;11.10;;;;;;;7.07;65.66;94142.25;5095529;28;20249;-78
2020/12/07 11:49:21;;;;;;;5.33;4.77;;;;;;;6.91;66.78;94145.16;5095687;28;20200;-76
2020/12/07 11:51:47;;;;;;;3.30;3.00;;;;;;;6.87;67.46;94139.59;5095375;28;20224;-77
2020/12/07 11:54:13;;;;;;;2.63;2.43;;;;;;;6.88;67.54;94142.97;5094537;28;20655;-77
2020/12/07 11:56:39;;;;;;;1.50;1.40;;;;;;;6.88;67.77;94145.53;5095062;28;20671;-79
2020/12/07 11:59:07;;;;;;;1.50;1.40;;;;;;;6.88;67.63;94140.41;5095248;28;20208;-77
2020/12/07 12:01:34;;;;;;;1.90;1.80;;;;;;;6.90;67.14;94135.88;5095257;28;20611;-77
2020/12/07 12:04:00;;;;;;;1.50;1.40;;;;;;;6.90;67.40;94130.78;5095124;28;20261;-77
2020/12/07 12:06:31;;;;;;;1.57;1.47;;;;;;;6.93;67.07;94132.94;5095038;28;20215;-78